sensor_id;sensor_type;location;lat;lon;timestamp;P1;durP1;ratioP1;P2;durP2;ratioP2
73454;SDS011;61690;51.824;6.306;2022-08-20T00:00:48;8.40;;;4.63;;
73454;SDS011;61690;51.824;6.306;2022-08-20T00:03:18;8.43;;;4.70;;
73454;SDS011;61690;51.824;6.306;2022-08-20T00:08:32;10.75;;;5.03;;
73454;SDS011;61690;51.824;6.306;2022-08-20T00:10:58;8.70;;;5.23;;
73454;SDS011;61690;51.824;6.306;2022-08-20T00:13:27;8.88;;;4.90;;
73454;SDS011;61690;51.824;6.306;2022-08-20T00:15:55;9.68;;;5.30;;
73454;SDS011;61690;51.824;6.306;2022-08-20T00:18:21;9.20;;;4.97;;
73454;SDS011;61690;51.824;6.306;2022-08-20T00:20:48;9.10;;;5.50;;
73454;SDS011;61690;51.824;6.306;2022-08-20T00:23:15;10.27;;;5.60;;
73454;SDS011;61690;51.824;6.306;2022-08-20T00:25:41;9.23;;;5.32;;
73454;SDS011;61690;51.824;6.306;2022-08-20T00:28:07;8.98;;;5.25;;
73454;SDS011;61690;51.824;6.306;2022-08-20T00:30:34;8.43;;;5.00;;
73454;SDS011;61690;51.824;6.306;2022-08-20T00:33:02;9.60;;;5.05;;
73454;SDS011;61690;51.824;6.306;2022-08-20T00:35:31;9.80;;;5.38;;
73454;SDS011;61690;51.824;6.306;2022-08-20T00:37:59;9.23;;;5.60;;
73454;SDS011;61690;51.824;6.306;2022-08-20T00:40:26;9.23;;;5.63;;
73454;SDS011;61690;51.824;6.306;2022-08-20T00:42:55;9.48;;;5.50;;
73454;SDS011;61690;51.824;6.306;2022-08-20T00:45:23;9.73;;;5.33;;
73454;SDS011;61690;51.824;6.306;2022-08-20T00:47:52;8.85;;;5.38;;
73454;SDS011;61690;51.824;6.306;2022-08-20T00:50:22;9.43;;;5.65;;
73454;SDS011;61690;51.824;6.306;2022-08-20T00:52:53;10.27;;;5.85;;
73454;SDS011;61690;51.824;6.306;2022-08-20T00:55:20;10.10;;;5.77;;
73454;SDS011;61690;51.824;6.306;2022-08-20T00:57:52;12.20;;;6.20;;
73454;SDS011;61690;51.824;6.306;2022-08-20T01:00:20;9.52;;;5.50;;
73454;SDS011;61690;51.824;6.306;2022-08-20T01:02:50;8.25;;;5.03;;
73454;SDS011;61690;51.824;6.306;2022-08-20T01:05:16;9.88;;;5.80;;
73454;SDS011;61690;51.824;6.306;2022-08-20T01:07:42;9.37;;;5.77;;
73454;SDS011;61690;51.824;6.306;2022-08-20T01:12:56;10.25;;;5.50;;
73454;SDS011;61690;51.824;6.306;2022-08-20T01:15:23;10.05;;;5.70;;
73454;SDS011;61690;51.824;6.306;2022-08-20T01:17:53;9.63;;;5.75;;
73454;SDS011;61690;51.824;6.306;2022-08-20T01:26:07;9.52;;;4.97;;
73454;SDS011;61690;51.824;6.306;2022-08-20T01:28:48;9.93;;;5.47;;
73454;SDS011;61690;51.824;6.306;2022-08-20T01:31:21;9.25;;;5.43;;
73454;SDS011;61690;51.824;6.306;2022-08-20T01:33:50;9.70;;;5.40;;
73454;SDS011;61690;51.824;6.306;2022-08-20T01:36:20;9.55;;;5.63;;
73454;SDS011;61690;51.824;6.306;2022-08-20T01:38:47;8.80;;;4.88;;
73454;SDS011;61690;51.824;6.306;2022-08-20T01:44:10;9.15;;;4.55;;
73454;SDS011;61690;51.824;6.306;2022-08-20T01:46:38;8.82;;;4.60;;
73454;SDS011;61690;51.824;6.306;2022-08-20T01:49:07;8.60;;;4.78;;
73454;SDS011;61690;51.824;6.306;2022-08-20T01:51:48;10.10;;;5.20;;
73454;SDS011;61690;51.824;6.306;2022-08-20T01:54:15;9.90;;;5.05;;
73454;SDS011;61690;51.824;6.306;2022-08-20T01:56:55;10.00;;;5.45;;
73454;SDS011;61690;51.824;6.306;2022-08-20T01:59:24;9.25;;;5.50;;
73454;SDS011;61690;51.824;6.306;2022-08-20T02:01:49;9.43;;;5.57;;
73454;SDS011;61690;51.824;6.306;2022-08-20T02:04:16;9.38;;;4.95;;
73454;SDS011;61690;51.824;6.306;2022-08-20T02:06:44;8.75;;;5.00;;
73454;SDS011;61690;51.824;6.306;2022-08-20T02:09:12;8.33;;;4.53;;
73454;SDS011;61690;51.824;6.306;2022-08-20T02:11:38;9.10;;;5.18;;
73454;SDS011;61690;51.824;6.306;2022-08-20T02:14:05;8.90;;;5.00;;
73454;SDS011;61690;51.824;6.306;2022-08-20T02:16:34;9.25;;;4.93;;
73454;SDS011;61690;51.824;6.306;2022-08-20T02:19:19;7.85;;;4.28;;
73454;SDS011;61690;51.824;6.306;2022-08-20T02:21:48;9.05;;;5.60;;
73454;SDS011;61690;51.824;6.306;2022-08-20T02:24:17;9.90;;;5.70;;
73454;SDS011;61690;51.824;6.306;2022-08-20T02:26:43;9.30;;;5.37;;
73454;SDS011;61690;51.824;6.306;2022-08-20T02:29:10;9.80;;;4.95;;
73454;SDS011;61690;51.824;6.306;2022-08-20T02:31:37;8.40;;;4.65;;
73454;SDS011;61690;51.824;6.306;2022-08-20T02:34:04;7.38;;;4.35;;
73454;SDS011;61690;51.824;6.306;2022-08-20T02:36:33;10.40;;;5.37;;
73454;SDS011;61690;51.824;6.306;2022-08-20T02:39:01;10.13;;;5.55;;
73454;SDS011;61690;51.824;6.306;2022-08-20T02:41:29;8.93;;;5.68;;
73454;SDS011;61690;51.824;6.306;2022-08-20T02:43:54;12.00;;;6.13;;
73454;SDS011;61690;51.824;6.306;2022-08-20T02:46:20;11.07;;;6.00;;
73454;SDS011;61690;51.824;6.306;2022-08-20T02:48:45;9.43;;;5.50;;
73454;SDS011;61690;51.824;6.306;2022-08-20T02:51:10;10.87;;;5.83;;
73454;SDS011;61690;51.824;6.306;2022-08-20T02:53:37;10.27;;;5.60;;
73454;SDS011;61690;51.824;6.306;2022-08-20T02:56:07;9.57;;;5.88;;
73454;SDS011;61690;51.824;6.306;2022-08-20T02:58:34;10.15;;;5.90;;
73454;SDS011;61690;51.824;6.306;2022-08-20T03:01:00;10.20;;;5.65;;
73454;SDS011;61690;51.824;6.306;2022-08-20T03:03:26;10.17;;;5.60;;
73454;SDS011;61690;51.824;6.306;2022-08-20T03:05:53;9.68;;;5.75;;
73454;SDS011;61690;51.824;6.306;2022-08-20T03:08:20;9.30;;;5.37;;
73454;SDS011;61690;51.824;6.306;2022-08-20T03:10:47;9.40;;;5.30;;
73454;SDS011;61690;51.824;6.306;2022-08-20T03:13:13;10.32;;;5.82;;
73454;SDS011;61690;51.824;6.306;2022-08-20T03:15:41;10.80;;;6.03;;
73454;SDS011;61690;51.824;6.306;2022-08-20T03:18:08;10.63;;;5.68;;
73454;SDS011;61690;51.824;6.306;2022-08-20T03:20:34;10.07;;;5.77;;
73454;SDS011;61690;51.824;6.306;2022-08-20T03:22:59;9.40;;;5.20;;
73454;SDS011;61690;51.824;6.306;2022-08-20T03:25:24;11.90;;;7.03;;
73454;SDS011;61690;51.824;6.306;2022-08-20T03:27:50;8.25;;;5.07;;
73454;SDS011;61690;51.824;6.306;2022-08-20T03:30:16;8.13;;;4.90;;
73454;SDS011;61690;51.824;6.306;2022-08-20T03:32:42;8.93;;;4.78;;
73454;SDS011;61690;51.824;6.306;2022-08-20T03:35:08;10.43;;;4.47;;
73454;SDS011;61690;51.824;6.306;2022-08-20T03:37:37;10.00;;;4.53;;
73454;SDS011;61690;51.824;6.306;2022-08-20T03:40:05;8.37;;;4.73;;
73454;SDS011;61690;51.824;6.306;2022-08-20T03:42:33;8.07;;;4.43;;
73454;SDS011;61690;51.824;6.306;2022-08-20T03:44:58;7.93;;;4.27;;
73454;SDS011;61690;51.824;6.306;2022-08-20T03:47:24;7.70;;;4.43;;
73454;SDS011;61690;51.824;6.306;2022-08-20T03:49:50;7.93;;;4.43;;
73454;SDS011;61690;51.824;6.306;2022-08-20T03:52:16;9.43;;;4.40;;
73454;SDS011;61690;51.824;6.306;2022-08-20T03:54:42;7.80;;;4.10;;
73454;SDS011;61690;51.824;6.306;2022-08-20T03:57:13;8.67;;;4.37;;
73454;SDS011;61690;51.824;6.306;2022-08-20T03:59:40;9.13;;;4.40;;
73454;SDS011;61690;51.824;6.306;2022-08-20T04:02:06;8.10;;;4.43;;
73454;SDS011;61690;51.824;6.306;2022-08-20T04:04:32;8.30;;;4.03;;
73454;SDS011;61690;51.824;6.306;2022-08-20T04:06:58;9.25;;;4.80;;
73454;SDS011;61690;51.824;6.306;2022-08-20T04:09:23;10.00;;;4.60;;
73454;SDS011;61690;51.824;6.306;2022-08-20T04:11:48;9.00;;;4.30;;
73454;SDS011;61690;51.824;6.306;2022-08-20T04:14:14;7.93;;;4.30;;
73454;SDS011;61690;51.824;6.306;2022-08-20T04:16:40;7.80;;;4.20;;
73454;SDS011;61690;51.824;6.306;2022-08-20T04:19:05;8.23;;;4.07;;
73454;SDS011;61690;51.824;6.306;2022-08-20T04:21:32;7.80;;;4.10;;
73454;SDS011;61690;51.824;6.306;2022-08-20T04:23:59;8.68;;;4.03;;
73454;SDS011;61690;51.824;6.306;2022-08-20T04:26:29;6.85;;;3.90;;
73454;SDS011;61690;51.824;6.306;2022-08-20T04:28:55;7.50;;;4.00;;
73454;SDS011;61690;51.824;6.306;2022-08-20T04:31:21;8.40;;;4.00;;
73454;SDS011;61690;51.824;6.306;2022-08-20T04:33:56;7.35;;;3.78;;
73454;SDS011;61690;51.824;6.306;2022-08-20T04:36:22;7.10;;;3.63;;
73454;SDS011;61690;51.824;6.306;2022-08-20T04:38:47;7.83;;;3.80;;
73454;SDS011;61690;51.824;6.306;2022-08-20T04:41:12;7.03;;;3.50;;
73454;SDS011;61690;51.824;6.306;2022-08-20T04:43:38;7.27;;;3.87;;
73454;SDS011;61690;51.824;6.306;2022-08-20T04:46:07;6.70;;;4.00;;
73454;SDS011;61690;51.824;6.306;2022-08-20T04:48:35;8.40;;;4.07;;
73454;SDS011;61690;51.824;6.306;2022-08-20T04:51:05;7.82;;;3.85;;
73454;SDS011;61690;51.824;6.306;2022-08-20T04:53:31;9.68;;;4.00;;
73454;SDS011;61690;51.824;6.306;2022-08-20T04:55:57;8.23;;;3.67;;
73454;SDS011;61690;51.824;6.306;2022-08-20T04:58:25;8.07;;;3.70;;
73454;SDS011;61690;51.824;6.306;2022-08-20T05:00:58;9.02;;;4.10;;
73454;SDS011;61690;51.824;6.306;2022-08-20T05:03:26;7.90;;;4.00;;
73454;SDS011;61690;51.824;6.306;2022-08-20T05:05:51;8.73;;;3.70;;
73454;SDS011;61690;51.824;6.306;2022-08-20T05:08:17;8.93;;;3.70;;
73454;SDS011;61690;51.824;6.306;2022-08-20T05:10:44;8.15;;;4.05;;
73454;SDS011;61690;51.824;6.306;2022-08-20T05:13:10;7.23;;;3.63;;
73454;SDS011;61690;51.824;6.306;2022-08-20T05:15:36;8.43;;;4.00;;
73454;SDS011;61690;51.824;6.306;2022-08-20T05:18:03;9.57;;;4.97;;
73454;SDS011;61690;51.824;6.306;2022-08-20T05:20:32;10.82;;;6.10;;
73454;SDS011;61690;51.824;6.306;2022-08-20T05:23:02;13.50;;;4.57;;
73454;SDS011;61690;51.824;6.306;2022-08-20T05:25:28;10.57;;;4.53;;
73454;SDS011;61690;51.824;6.306;2022-08-20T05:27:59;10.45;;;4.63;;
73454;SDS011;61690;51.824;6.306;2022-08-20T05:30:27;11.20;;;4.90;;
73454;SDS011;61690;51.824;6.306;2022-08-20T05:33:04;10.17;;;4.73;;
73454;SDS011;61690;51.824;6.306;2022-08-20T05:35:31;10.18;;;5.00;;
73454;SDS011;61690;51.824;6.306;2022-08-20T05:37:58;10.50;;;5.78;;
73454;SDS011;61690;51.824;6.306;2022-08-20T05:40:25;10.38;;;5.90;;
73454;SDS011;61690;51.824;6.306;2022-08-20T05:42:51;9.95;;;5.57;;
73454;SDS011;61690;51.824;6.306;2022-08-20T05:45:18;12.97;;;5.73;;
73454;SDS011;61690;51.824;6.306;2022-08-20T05:47:44;9.95;;;5.07;;
73454;SDS011;61690;51.824;6.306;2022-08-20T05:50:10;9.82;;;5.20;;
73454;SDS011;61690;51.824;6.306;2022-08-20T05:52:40;9.43;;;5.20;;
73454;SDS011;61690;51.824;6.306;2022-08-20T05:55:06;8.73;;;4.90;;
73454;SDS011;61690;51.824;6.306;2022-08-20T05:57:34;9.73;;;4.82;;
73454;SDS011;61690;51.824;6.306;2022-08-20T06:00:01;8.23;;;4.88;;
73454;SDS011;61690;51.824;6.306;2022-08-20T06:02:29;8.68;;;4.75;;
73454;SDS011;61690;51.824;6.306;2022-08-20T06:05:13;10.50;;;4.90;;
73454;SDS011;61690;51.824;6.306;2022-08-20T06:07:38;9.73;;;5.00;;
73454;SDS011;61690;51.824;6.306;2022-08-20T06:10:04;9.27;;;5.00;;
73454;SDS011;61690;51.824;6.306;2022-08-20T06:12:30;9.93;;;5.07;;
73454;SDS011;61690;51.824;6.306;2022-08-20T06:14:57;9.30;;;4.82;;
73454;SDS011;61690;51.824;6.306;2022-08-20T06:17:23;8.52;;;4.78;;
73454;SDS011;61690;51.824;6.306;2022-08-20T06:19:49;8.07;;;4.80;;
73454;SDS011;61690;51.824;6.306;2022-08-20T06:22:14;9.52;;;4.60;;
73454;SDS011;61690;51.824;6.306;2022-08-20T06:24:40;9.33;;;4.83;;
73454;SDS011;61690;51.824;6.306;2022-08-20T06:27:05;8.87;;;4.70;;
73454;SDS011;61690;51.824;6.306;2022-08-20T06:29:31;9.65;;;4.97;;
73454;SDS011;61690;51.824;6.306;2022-08-20T06:31:57;13.77;;;6.50;;
73454;SDS011;61690;51.824;6.306;2022-08-20T06:34:23;9.20;;;5.63;;
73454;SDS011;61690;51.824;6.306;2022-08-20T06:36:52;9.70;;;5.18;;
73454;SDS011;61690;51.824;6.306;2022-08-20T06:39:19;14.25;;;7.10;;
73454;SDS011;61690;51.824;6.306;2022-08-20T06:41:45;11.32;;;6.53;;
73454;SDS011;61690;51.824;6.306;2022-08-20T06:44:10;11.23;;;5.47;;
73454;SDS011;61690;51.824;6.306;2022-08-20T06:46:36;11.73;;;5.63;;
73454;SDS011;61690;51.824;6.306;2022-08-20T06:49:05;10.00;;;5.20;;
73454;SDS011;61690;51.824;6.306;2022-08-20T06:51:31;11.40;;;5.43;;
73454;SDS011;61690;51.824;6.306;2022-08-20T06:53:58;11.23;;;6.07;;
73454;SDS011;61690;51.824;6.306;2022-08-20T06:56:23;11.60;;;6.40;;
73454;SDS011;61690;51.824;6.306;2022-08-20T06:58:49;10.10;;;6.03;;
73454;SDS011;61690;51.824;6.306;2022-08-20T07:01:14;12.23;;;6.47;;
73454;SDS011;61690;51.824;6.306;2022-08-20T07:03:45;10.13;;;5.67;;
73454;SDS011;61690;51.824;6.306;2022-08-20T07:06:12;14.38;;;7.18;;
73454;SDS011;61690;51.824;6.306;2022-08-20T07:08:37;12.18;;;6.80;;
73454;SDS011;61690;51.824;6.306;2022-08-20T07:11:04;11.70;;;6.20;;
73454;SDS011;61690;51.824;6.306;2022-08-20T07:13:29;11.55;;;6.40;;
73454;SDS011;61690;51.824;6.306;2022-08-20T07:15:55;9.63;;;5.90;;
73454;SDS011;61690;51.824;6.306;2022-08-20T07:18:20;9.83;;;5.83;;
73454;SDS011;61690;51.824;6.306;2022-08-20T07:20:46;9.82;;;5.70;;
73454;SDS011;61690;51.824;6.306;2022-08-20T07:23:12;11.35;;;5.50;;
73454;SDS011;61690;51.824;6.306;2022-08-20T07:25:39;10.97;;;6.13;;
73454;SDS011;61690;51.824;6.306;2022-08-20T07:28:07;10.05;;;5.75;;
73454;SDS011;61690;51.824;6.306;2022-08-20T07:30:35;10.70;;;5.38;;
73454;SDS011;61690;51.824;6.306;2022-08-20T07:33:19;9.47;;;5.50;;
73454;SDS011;61690;51.824;6.306;2022-08-20T07:35:44;8.77;;;4.90;;
73454;SDS011;61690;51.824;6.306;2022-08-20T07:38:14;9.57;;;4.93;;
73454;SDS011;61690;51.824;6.306;2022-08-20T07:40:43;9.77;;;5.07;;
73454;SDS011;61690;51.824;6.306;2022-08-20T07:43:09;9.98;;;4.90;;
73454;SDS011;61690;51.824;6.306;2022-08-20T07:45:34;9.93;;;4.17;;
73454;SDS011;61690;51.824;6.306;2022-08-20T07:48:06;9.95;;;4.50;;
73454;SDS011;61690;51.824;6.306;2022-08-20T07:50:34;9.55;;;4.78;;
73454;SDS011;61690;51.824;6.306;2022-08-20T07:53:00;10.50;;;5.63;;
73454;SDS011;61690;51.824;6.306;2022-08-20T07:55:25;9.97;;;5.50;;
73454;SDS011;61690;51.824;6.306;2022-08-20T07:57:51;8.50;;;4.82;;
73454;SDS011;61690;51.824;6.306;2022-08-20T08:00:18;11.97;;;4.93;;
73454;SDS011;61690;51.824;6.306;2022-08-20T08:02:45;10.15;;;4.70;;
73454;SDS011;61690;51.824;6.306;2022-08-20T08:05:11;10.53;;;4.50;;
73454;SDS011;61690;51.824;6.306;2022-08-20T08:07:37;10.85;;;5.00;;
73454;SDS011;61690;51.824;6.306;2022-08-20T08:10:04;11.73;;;5.55;;
73454;SDS011;61690;51.824;6.306;2022-08-20T08:12:39;13.13;;;6.07;;
73454;SDS011;61690;51.824;6.306;2022-08-20T08:15:09;12.67;;;5.30;;
73454;SDS011;61690;51.824;6.306;2022-08-20T08:17:37;9.63;;;4.72;;
73454;SDS011;61690;51.824;6.306;2022-08-20T08:20:03;9.77;;;5.43;;
73454;SDS011;61690;51.824;6.306;2022-08-20T08:22:30;14.52;;;5.22;;
73454;SDS011;61690;51.824;6.306;2022-08-20T08:24:57;10.23;;;4.90;;
73454;SDS011;61690;51.824;6.306;2022-08-20T08:27:26;10.60;;;4.67;;
73454;SDS011;61690;51.824;6.306;2022-08-20T08:29:56;9.38;;;4.93;;
73454;SDS011;61690;51.824;6.306;2022-08-20T08:32:22;9.20;;;5.30;;
73454;SDS011;61690;51.824;6.306;2022-08-20T08:34:48;10.47;;;5.13;;
73454;SDS011;61690;51.824;6.306;2022-08-20T08:37:13;11.68;;;4.72;;
73454;SDS011;61690;51.824;6.306;2022-08-20T08:39:39;9.30;;;4.90;;
73454;SDS011;61690;51.824;6.306;2022-08-20T08:42:04;9.20;;;5.60;;
73454;SDS011;61690;51.824;6.306;2022-08-20T08:44:50;10.07;;;4.80;;
73454;SDS011;61690;51.824;6.306;2022-08-20T08:47:22;12.87;;;5.67;;
73454;SDS011;61690;51.824;6.306;2022-08-20T08:49:53;12.05;;;6.30;;
73454;SDS011;61690;51.824;6.306;2022-08-20T08:52:21;10.88;;;5.78;;
73454;SDS011;61690;51.824;6.306;2022-08-20T08:54:54;10.80;;;5.80;;
73454;SDS011;61690;51.824;6.306;2022-08-20T08:57:23;10.68;;;6.07;;
73454;SDS011;61690;51.824;6.306;2022-08-20T08:59:53;10.65;;;5.95;;
73454;SDS011;61690;51.824;6.306;2022-08-20T09:02:33;10.05;;;5.75;;
73454;SDS011;61690;51.824;6.306;2022-08-20T09:05:03;9.32;;;5.43;;
73454;SDS011;61690;51.824;6.306;2022-08-20T09:07:38;10.77;;;5.23;;
73454;SDS011;61690;51.824;6.306;2022-08-20T09:10:05;9.25;;;5.40;;
73454;SDS011;61690;51.824;6.306;2022-08-20T09:12:32;10.32;;;5.45;;
73454;SDS011;61690;51.824;6.306;2022-08-20T09:14:57;10.53;;;5.90;;
73454;SDS011;61690;51.824;6.306;2022-08-20T09:17:23;10.33;;;5.17;;
73454;SDS011;61690;51.824;6.306;2022-08-20T09:19:49;12.05;;;5.43;;
73454;SDS011;61690;51.824;6.306;2022-08-20T09:22:17;11.65;;;4.78;;
73454;SDS011;61690;51.824;6.306;2022-08-20T09:24:49;13.18;;;5.20;;
73454;SDS011;61690;51.824;6.306;2022-08-20T09:27:14;10.73;;;4.00;;
73454;SDS011;61690;51.824;6.306;2022-08-20T09:29:40;7.00;;;3.77;;
73454;SDS011;61690;51.824;6.306;2022-08-20T09:32:07;7.78;;;3.75;;
73454;SDS011;61690;51.824;6.306;2022-08-20T09:34:38;11.32;;;3.70;;
73454;SDS011;61690;51.824;6.306;2022-08-20T09:37:06;8.53;;;3.37;;
73454;SDS011;61690;51.824;6.306;2022-08-20T09:39:32;8.82;;;3.33;;
73454;SDS011;61690;51.824;6.306;2022-08-20T09:42:13;10.13;;;3.50;;
73454;SDS011;61690;51.824;6.306;2022-08-20T09:44:41;6.13;;;3.25;;
73454;SDS011;61690;51.824;6.306;2022-08-20T09:47:07;10.18;;;3.40;;
73454;SDS011;61690;51.824;6.306;2022-08-20T09:49:33;10.32;;;3.40;;
73454;SDS011;61690;51.824;6.306;2022-08-20T09:52:02;9.27;;;2.90;;
73454;SDS011;61690;51.824;6.306;2022-08-20T09:54:28;9.38;;;2.80;;
73454;SDS011;61690;51.824;6.306;2022-08-20T09:56:58;11.07;;;3.40;;
73454;SDS011;61690;51.824;6.306;2022-08-20T09:59:26;12.27;;;3.42;;
73454;SDS011;61690;51.824;6.306;2022-08-20T10:01:52;6.55;;;3.00;;
73454;SDS011;61690;51.824;6.306;2022-08-20T10:04:18;9.30;;;3.13;;
73454;SDS011;61690;51.824;6.306;2022-08-20T10:06:43;6.57;;;3.00;;
73454;SDS011;61690;51.824;6.306;2022-08-20T10:09:09;8.75;;;3.17;;
73454;SDS011;61690;51.824;6.306;2022-08-20T10:11:34;6.70;;;2.90;;
73454;SDS011;61690;51.824;6.306;2022-08-20T10:14:00;7.47;;;2.80;;
73454;SDS011;61690;51.824;6.306;2022-08-20T10:16:25;7.63;;;3.03;;
73454;SDS011;61690;51.824;6.306;2022-08-20T10:18:53;7.17;;;3.27;;
73454;SDS011;61690;51.824;6.306;2022-08-20T10:21:19;7.88;;;3.10;;
73454;SDS011;61690;51.824;6.306;2022-08-20T10:23:44;7.28;;;2.90;;
73454;SDS011;61690;51.824;6.306;2022-08-20T10:26:10;7.60;;;3.10;;
73454;SDS011;61690;51.824;6.306;2022-08-20T10:28:36;6.97;;;2.90;;
73454;SDS011;61690;51.824;6.306;2022-08-20T10:31:04;6.43;;;3.10;;
73454;SDS011;61690;51.824;6.306;2022-08-20T10:33:30;8.05;;;3.10;;
73454;SDS011;61690;51.824;6.306;2022-08-20T10:36:04;7.13;;;3.30;;
73454;SDS011;61690;51.824;6.306;2022-08-20T10:38:37;7.00;;;3.28;;
73454;SDS011;61690;51.824;6.306;2022-08-20T10:41:03;8.07;;;2.93;;
73454;SDS011;61690;51.824;6.306;2022-08-20T10:43:28;9.90;;;3.10;;
73454;SDS011;61690;51.824;6.306;2022-08-20T10:45:55;6.68;;;3.05;;
73454;SDS011;61690;51.824;6.306;2022-08-20T10:48:21;7.88;;;3.13;;
73454;SDS011;61690;51.824;6.306;2022-08-20T10:50:47;7.32;;;3.13;;
73454;SDS011;61690;51.824;6.306;2022-08-20T10:53:13;6.93;;;3.10;;
73454;SDS011;61690;51.824;6.306;2022-08-20T10:55:38;7.45;;;2.90;;
73454;SDS011;61690;51.824;6.306;2022-08-20T10:58:04;7.30;;;2.73;;
73454;SDS011;61690;51.824;6.306;2022-08-20T11:00:31;5.65;;;2.95;;
73454;SDS011;61690;51.824;6.306;2022-08-20T11:03:03;5.47;;;2.90;;
73454;SDS011;61690;51.824;6.306;2022-08-20T11:05:28;5.73;;;2.80;;
73454;SDS011;61690;51.824;6.306;2022-08-20T11:07:53;8.07;;;3.10;;
73454;SDS011;61690;51.824;6.306;2022-08-20T11:10:20;7.20;;;3.00;;
73454;SDS011;61690;51.824;6.306;2022-08-20T11:12:46;7.00;;;3.00;;
73454;SDS011;61690;51.824;6.306;2022-08-20T11:15:14;7.70;;;2.80;;
73454;SDS011;61690;51.824;6.306;2022-08-20T11:17:40;7.85;;;2.95;;
73454;SDS011;61690;51.824;6.306;2022-08-20T11:20:07;8.33;;;3.13;;
73454;SDS011;61690;51.824;6.306;2022-08-20T11:22:34;10.25;;;3.13;;
73454;SDS011;61690;51.824;6.306;2022-08-20T11:25:00;6.38;;;2.80;;
73454;SDS011;61690;51.824;6.306;2022-08-20T11:27:28;6.65;;;2.78;;
73454;SDS011;61690;51.824;6.306;2022-08-20T11:29:56;8.30;;;2.85;;
73454;SDS011;61690;51.824;6.306;2022-08-20T11:32:22;8.43;;;3.00;;
73454;SDS011;61690;51.824;6.306;2022-08-20T11:34:48;7.13;;;2.78;;
73454;SDS011;61690;51.824;6.306;2022-08-20T11:37:13;7.37;;;3.10;;
73454;SDS011;61690;51.824;6.306;2022-08-20T11:39:41;5.35;;;2.65;;
73454;SDS011;61690;51.824;6.306;2022-08-20T11:42:06;8.47;;;3.07;;
73454;SDS011;61690;51.824;6.306;2022-08-20T11:44:32;6.23;;;2.83;;
73454;SDS011;61690;51.824;6.306;2022-08-20T11:47:01;7.60;;;3.13;;
73454;SDS011;61690;51.824;6.306;2022-08-20T11:49:32;6.30;;;2.80;;
73454;SDS011;61690;51.824;6.306;2022-08-20T11:51:59;6.22;;;2.50;;
73454;SDS011;61690;51.824;6.306;2022-08-20T11:54:24;6.77;;;3.13;;
73454;SDS011;61690;51.824;6.306;2022-08-20T11:56:52;7.53;;;2.67;;
73454;SDS011;61690;51.824;6.306;2022-08-20T11:59:20;7.70;;;2.72;;
73454;SDS011;61690;51.824;6.306;2022-08-20T12:01:45;7.65;;;2.70;;
73454;SDS011;61690;51.824;6.306;2022-08-20T12:04:11;7.67;;;2.80;;
73454;SDS011;61690;51.824;6.306;2022-08-20T12:06:36;7.60;;;2.80;;
73454;SDS011;61690;51.824;6.306;2022-08-20T12:09:02;7.93;;;2.50;;
73454;SDS011;61690;51.824;6.306;2022-08-20T12:11:27;6.75;;;2.90;;
73454;SDS011;61690;51.824;6.306;2022-08-20T12:13:53;7.17;;;2.63;;
73454;SDS011;61690;51.824;6.306;2022-08-20T12:16:18;6.97;;;2.80;;
73454;SDS011;61690;51.824;6.306;2022-08-20T12:18:44;5.57;;;2.73;;
73454;SDS011;61690;51.824;6.306;2022-08-20T12:21:11;6.00;;;2.70;;
73454;SDS011;61690;51.824;6.306;2022-08-20T12:23:36;7.47;;;2.60;;
73454;SDS011;61690;51.824;6.306;2022-08-20T12:26:02;7.33;;;3.00;;
73454;SDS011;61690;51.824;6.306;2022-08-20T12:28:28;5.43;;;2.50;;
73454;SDS011;61690;51.824;6.306;2022-08-20T12:30:54;6.60;;;2.83;;
73454;SDS011;61690;51.824;6.306;2022-08-20T12:33:20;5.95;;;2.80;;
73454;SDS011;61690;51.824;6.306;2022-08-20T12:35:46;7.70;;;2.80;;
73454;SDS011;61690;51.824;6.306;2022-08-20T12:38:11;6.47;;;2.80;;
73454;SDS011;61690;51.824;6.306;2022-08-20T12:40:36;7.13;;;2.90;;
73454;SDS011;61690;51.824;6.306;2022-08-20T12:43:02;8.10;;;2.90;;
73454;SDS011;61690;51.824;6.306;2022-08-20T12:45:28;6.05;;;2.70;;
73454;SDS011;61690;51.824;6.306;2022-08-20T12:47:58;6.97;;;2.70;;
73454;SDS011;61690;51.824;6.306;2022-08-20T12:50:42;6.85;;;2.60;;
73454;SDS011;61690;51.824;6.306;2022-08-20T12:53:09;6.57;;;2.88;;
73454;SDS011;61690;51.824;6.306;2022-08-20T12:55:41;6.13;;;2.67;;
73454;SDS011;61690;51.824;6.306;2022-08-20T12:58:07;5.70;;;2.70;;
73454;SDS011;61690;51.824;6.306;2022-08-20T13:00:34;6.47;;;2.92;;
73454;SDS011;61690;51.824;6.306;2022-08-20T13:03:03;6.53;;;2.40;;
73454;SDS011;61690;51.824;6.306;2022-08-20T13:05:30;6.80;;;2.72;;
73454;SDS011;61690;51.824;6.306;2022-08-20T13:07:56;6.10;;;2.58;;
73454;SDS011;61690;51.824;6.306;2022-08-20T13:10:26;5.75;;;2.50;;
73454;SDS011;61690;51.824;6.306;2022-08-20T13:12:53;6.15;;;2.58;;
73454;SDS011;61690;51.824;6.306;2022-08-20T13:15:20;7.37;;;2.63;;
73454;SDS011;61690;51.824;6.306;2022-08-20T13:17:50;5.15;;;2.55;;
73454;SDS011;61690;51.824;6.306;2022-08-20T13:20:17;6.05;;;2.42;;
73454;SDS011;61690;51.824;6.306;2022-08-20T13:22:42;6.32;;;2.40;;
73454;SDS011;61690;51.824;6.306;2022-08-20T13:25:08;5.73;;;2.80;;
73454;SDS011;61690;51.824;6.306;2022-08-20T13:27:35;6.47;;;2.70;;
73454;SDS011;61690;51.824;6.306;2022-08-20T13:30:03;5.53;;;2.47;;
73454;SDS011;61690;51.824;6.306;2022-08-20T13:32:30;6.57;;;2.83;;
73454;SDS011;61690;51.824;6.306;2022-08-20T13:34:56;5.80;;;2.60;;
73454;SDS011;61690;51.824;6.306;2022-08-20T13:37:22;5.83;;;2.70;;
73454;SDS011;61690;51.824;6.306;2022-08-20T13:39:49;5.47;;;2.47;;
73454;SDS011;61690;51.824;6.306;2022-08-20T13:42:15;5.53;;;2.53;;
73454;SDS011;61690;51.824;6.306;2022-08-20T13:44:41;6.20;;;2.20;;
73454;SDS011;61690;51.824;6.306;2022-08-20T13:49:39;6.07;;;2.63;;
73454;SDS011;61690;51.824;6.306;2022-08-20T13:52:05;5.20;;;2.50;;
73454;SDS011;61690;51.824;6.306;2022-08-20T13:54:30;5.37;;;2.70;;
73454;SDS011;61690;51.824;6.306;2022-08-20T13:57:09;5.90;;;2.40;;
73454;SDS011;61690;51.824;6.306;2022-08-20T13:59:38;6.17;;;2.77;;
73454;SDS011;61690;51.824;6.306;2022-08-20T14:02:06;5.85;;;2.55;;
73454;SDS011;61690;51.824;6.306;2022-08-20T14:04:32;5.05;;;2.35;;
73454;SDS011;61690;51.824;6.306;2022-08-20T14:07:06;6.32;;;2.67;;
73454;SDS011;61690;51.824;6.306;2022-08-20T14:09:43;7.60;;;2.50;;
73454;SDS011;61690;51.824;6.306;2022-08-20T14:12:10;5.90;;;2.47;;
73454;SDS011;61690;51.824;6.306;2022-08-20T14:14:37;6.18;;;2.55;;
73454;SDS011;61690;51.824;6.306;2022-08-20T14:17:25;6.40;;;2.70;;
73454;SDS011;61690;51.824;6.306;2022-08-20T14:20:00;6.82;;;2.58;;
73454;SDS011;61690;51.824;6.306;2022-08-20T14:22:31;7.30;;;2.73;;
73454;SDS011;61690;51.824;6.306;2022-08-20T14:24:57;7.00;;;3.05;;
73454;SDS011;61690;51.824;6.306;2022-08-20T14:27:26;8.25;;;3.50;;
73454;SDS011;61690;51.824;6.306;2022-08-20T14:29:52;8.07;;;2.80;;
73454;SDS011;61690;51.824;6.306;2022-08-20T14:32:23;6.47;;;2.80;;
73454;SDS011;61690;51.824;6.306;2022-08-20T14:34:49;6.95;;;2.65;;
73454;SDS011;61690;51.824;6.306;2022-08-20T14:37:17;5.67;;;2.53;;
73454;SDS011;61690;51.824;6.306;2022-08-20T14:39:46;5.40;;;2.70;;
73454;SDS011;61690;51.824;6.306;2022-08-20T14:42:13;7.80;;;2.90;;
73454;SDS011;61690;51.824;6.306;2022-08-20T14:44:40;5.43;;;2.80;;
73454;SDS011;61690;51.824;6.306;2022-08-20T14:50:01;5.88;;;2.67;;
73454;SDS011;61690;51.824;6.306;2022-08-20T14:52:38;6.63;;;3.47;;
73454;SDS011;61690;51.824;6.306;2022-08-20T14:55:12;6.22;;;3.28;;
73454;SDS011;61690;51.824;6.306;2022-08-20T14:57:39;7.65;;;3.70;;
73454;SDS011;61690;51.824;6.306;2022-08-20T15:00:06;6.53;;;3.33;;
73454;SDS011;61690;51.824;6.306;2022-08-20T15:02:34;6.35;;;3.30;;
73454;SDS011;61690;51.824;6.306;2022-08-20T15:05:11;6.70;;;3.13;;